sensor_id;sensor_type;location;lat;lon;timestamp;pressure;altitude;pressure_sealevel;temperature;humidity
55418;BME280;41287;47.554;7.844;2023-06-14T00:00:51;97371.25;;;21.14;33.96
55418;BME280;41287;47.554;7.844;2023-06-14T00:03:31;97375.13;;;21.13;33.86
55418;BME280;41287;47.554;7.844;2023-06-14T00:05:57;97374.75;;;21.15;33.68
55418;BME280;41287;47.554;7.844;2023-06-14T00:08:22;97379.00;;;21.12;33.88
55418;BME280;41287;47.554;7.844;2023-06-14T00:10:49;97379.00;;;21.12;34.10
55418;BME280;41287;47.554;7.844;2023-06-14T00:13:15;97377.78;;;21.10;34.11
55418;BME280;41287;47.554;7.844;2023-06-14T00:15:40;97375.06;;;21.10;34.27
55418;BME280;41287;47.554;7.844;2023-06-14T00:18:06;97374.66;;;21.08;34.37
55418;BME280;41287;47.554;7.844;2023-06-14T00:20:32;97383.97;;;21.07;34.27
55418;BME280;41287;47.554;7.844;2023-06-14T00:23:01;97376.94;;;21.06;34.34
55418;BME280;41287;47.554;7.844;2023-06-14T00:25:27;97369.13;;;21.04;34.35
55418;BME280;41287;47.554;7.844;2023-06-14T00:27:56;97374.59;;;21.04;34.33
55418;BME280;41287;47.554;7.844;2023-06-14T00:30:22;97368.72;;;21.02;34.20
55418;BME280;41287;47.554;7.844;2023-06-14T00:32:47;97371.44;;;21.02;34.60
55418;BME280;41287;47.554;7.844;2023-06-14T00:35:13;97367.16;;;21.01;34.62
55418;BME280;41287;47.554;7.844;2023-06-14T00:37:39;97368.31;;;21.00;34.68
55418;BME280;41287;47.554;7.844;2023-06-14T00:40:04;97367.88;;;20.98;34.98
55418;BME280;41287;47.554;7.844;2023-06-14T00:42:30;97365.16;;;20.98;34.85
55418;BME280;41287;47.554;7.844;2023-06-14T00:44:58;97376.41;;;20.97;34.90
55418;BME280;41287;47.554;7.844;2023-06-14T00:47:24;97375.22;;;20.94;35.13
55418;BME280;41287;47.554;7.844;2023-06-14T00:49:50;97381.81;;;20.93;34.92
55418;BME280;41287;47.554;7.844;2023-06-14T00:52:19;97380.25;;;20.92;35.21
55418;BME280;41287;47.554;7.844;2023-06-14T00:54:44;97382.53;;;20.90;35.35
55418;BME280;41287;47.554;7.844;2023-06-14T00:57:10;97387.97;;;20.90;35.24
55418;BME280;41287;47.554;7.844;2023-06-14T00:59:47;97379.34;;;20.84;35.41
55418;BME280;41287;47.554;7.844;2023-06-14T01:02:13;97384.44;;;20.86;35.65
55418;BME280;41287;47.554;7.844;2023-06-14T01:04:46;97379.34;;;20.84;35.42
55418;BME280;41287;47.554;7.844;2023-06-14T01:13:05;97387.81;;;20.79;35.64
55418;BME280;41287;47.554;7.844;2023-06-14T01:15:32;97386.25;;;20.78;35.57
55418;BME280;41287;47.554;7.844;2023-06-14T01:17:58;97386.59;;;20.77;35.43
55418;BME280;41287;47.554;7.844;2023-06-14T01:20:29;97387.75;;;20.76;35.70
55418;BME280;41287;47.554;7.844;2023-06-14T01:22:56;97379.19;;;20.74;35.70
55418;BME280;41287;47.554;7.844;2023-06-14T01:25:22;97385.41;;;20.74;35.73
55418;BME280;41287;47.554;7.844;2023-06-14T01:27:55;97390.44;;;20.72;35.85
55418;BME280;41287;47.554;7.844;2023-06-14T01:30:21;97388.06;;;20.71;35.85
55418;BME280;41287;47.554;7.844;2023-06-14T01:32:48;97386.47;;;20.70;35.93
55418;BME280;41287;47.554;7.844;2023-06-14T01:35:15;97384.13;;;20.68;36.07
55418;BME280;41287;47.554;7.844;2023-06-14T01:37:41;97390.75;;;20.67;36.06
55418;BME280;41287;47.554;7.844;2023-06-14T01:40:08;97385.66;;;20.66;36.12
55418;BME280;41287;47.554;7.844;2023-06-14T01:42:37;97386.81;;;20.65;36.05
55418;BME280;41287;47.554;7.844;2023-06-14T01:45:04;97379.78;;;20.64;36.38
55418;BME280;41287;47.554;7.844;2023-06-14T01:47:31;97387.94;;;20.64;36.49
55418;BME280;41287;47.554;7.844;2023-06-14T01:49:57;97382.84;;;20.62;36.56
55418;BME280;41287;47.554;7.844;2023-06-14T01:52:22;97385.19;;;20.60;36.70
55418;BME280;41287;47.554;7.844;2023-06-14T01:54:49;97377.38;;;20.59;36.62
55418;BME280;41287;47.554;7.844;2023-06-14T01:57:15;97381.22;;;20.58;36.57
55418;BME280;41287;47.554;7.844;2023-06-14T01:59:40;97377.72;;;20.57;36.29
55418;BME280;41287;47.554;7.844;2023-06-14T02:02:05;97378.88;;;20.56;36.54
55418;BME280;41287;47.554;7.844;2023-06-14T02:04:33;97380.41;;;20.54;36.57
55418;BME280;41287;47.554;7.844;2023-06-14T02:07:00;97376.88;;;20.53;36.72
55418;BME280;41287;47.554;7.844;2023-06-14T02:09:26;97379.19;;;20.51;36.60
55418;BME280;41287;47.554;7.844;2023-06-14T02:11:51;97385.75;;;20.50;36.72
55418;BME280;41287;47.554;7.844;2023-06-14T02:14:16;97384.97;;;20.49;36.74
55418;BME280;41287;47.554;7.844;2023-06-14T02:16:44;97381.06;;;20.47;36.62
55418;BME280;41287;47.554;7.844;2023-06-14T02:19:17;97388.44;;;20.46;36.66
55418;BME280;41287;47.554;7.844;2023-06-14T02:21:43;97386.88;;;20.45;36.65
55418;BME280;41287;47.554;7.844;2023-06-14T02:24:08;97389.16;;;20.43;36.69
55418;BME280;41287;47.554;7.844;2023-06-14T02:26:33;97389.50;;;20.42;36.79
55418;BME280;41287;47.554;7.844;2023-06-14T02:29:01;97389.84;;;20.40;36.71
55418;BME280;41287;47.554;7.844;2023-06-14T02:31:27;97394.53;;;20.40;36.65
55418;BME280;41287;47.554;7.844;2023-06-14T02:33:52;97395.69;;;20.39;36.61
55418;BME280;41287;47.554;7.844;2023-06-14T02:36:18;97387.88;;;20.37;36.55
55418;BME280;41287;47.554;7.844;2023-06-14T02:38:43;97398.34;;;20.35;36.59
55418;BME280;41287;47.554;7.844;2023-06-14T02:41:08;97392.09;;;20.35;36.66
55418;BME280;41287;47.554;7.844;2023-06-14T02:43:33;97394.41;;;20.33;36.74
55418;BME280;41287;47.554;7.844;2023-06-14T02:46:01;97409.91;;;20.32;36.71
55418;BME280;41287;47.554;7.844;2023-06-14T02:48:29;97404.03;;;20.30;36.84
55418;BME280;41287;47.554;7.844;2023-06-14T02:50:55;97397.03;;;20.29;36.68
55418;BME280;41287;47.554;7.844;2023-06-14T02:53:21;97402.47;;;20.29;36.77
55418;BME280;41287;47.554;7.844;2023-06-14T02:55:46;97404.75;;;20.27;36.60
55418;BME280;41287;47.554;7.844;2023-06-14T02:58:13;97402.41;;;20.26;36.69
55418;BME280;41287;47.554;7.844;2023-06-14T03:00:39;97406.63;;;20.23;36.75
55418;BME280;41287;47.554;7.844;2023-06-14T03:03:06;97409.34;;;20.23;36.66
55418;BME280;41287;47.554;7.844;2023-06-14T03:05:38;97413.22;;;20.22;36.61
55418;BME280;41287;47.554;7.844;2023-06-14T03:08:06;97415.50;;;20.20;36.72
55418;BME280;41287;47.554;7.844;2023-06-14T03:10:35;97413.16;;;20.19;36.69
55418;BME280;41287;47.554;7.844;2023-06-14T03:13:01;97417.81;;;20.18;36.61
55418;BME280;41287;47.554;7.844;2023-06-14T03:15:26;97413.06;;;20.15;36.77
55418;BME280;41287;47.554;7.844;2023-06-14T03:17:52;97411.50;;;20.14;36.55
55418;BME280;41287;47.554;7.844;2023-06-14T03:20:18;97415.38;;;20.13;36.82
55418;BME280;41287;47.554;7.844;2023-06-14T03:22:44;97414.97;;;20.11;36.79
55418;BME280;41287;47.554;7.844;2023-06-14T03:25:11;97416.88;;;20.10;37.03
55418;BME280;41287;47.554;7.844;2023-06-14T03:27:42;97421.88;;;20.08;36.72
55418;BME280;41287;47.554;7.844;2023-06-14T03:30:08;97421.09;;;20.08;36.96
55418;BME280;41287;47.554;7.844;2023-06-14T03:32:33;97427.69;;;20.07;36.90
55418;BME280;41287;47.554;7.844;2023-06-14T03:34:58;97432.72;;;20.05;36.89
55418;BME280;41287;47.554;7.844;2023-06-14T03:37:23;97429.56;;;20.03;36.95
55418;BME280;41287;47.554;7.844;2023-06-14T03:39:49;97443.16;;;20.03;36.89
55418;BME280;41287;47.554;7.844;2023-06-14T03:42:14;97440.78;;;20.01;36.84
55418;BME280;41287;47.554;7.844;2023-06-14T03:44:40;97450.47;;;19.99;36.88
55418;BME280;41287;47.554;7.844;2023-06-14T03:47:05;97449.66;;;19.98;36.95
55418;BME280;41287;47.554;7.844;2023-06-14T03:49:31;97448.88;;;19.98;37.02
55418;BME280;41287;47.554;7.844;2023-06-14T03:51:56;97450.81;;;19.97;37.51
55418;BME280;41287;47.554;7.844;2023-06-14T03:54:22;97447.00;;;20.02;39.72
55418;BME280;41287;47.554;7.844;2023-06-14T03:56:49;97446.72;;;20.07;39.91
55418;BME280;41287;47.554;7.844;2023-06-14T03:59:14;97457.34;;;20.12;40.14
55418;BME280;41287;47.554;7.844;2023-06-14T04:01:40;97457.38;;;20.16;39.98
55418;BME280;41287;47.554;7.844;2023-06-14T04:04:11;97454.75;;;20.19;39.85
55418;BME280;41287;47.554;7.844;2023-06-14T04:06:36;97465.69;;;20.23;40.19
55418;BME280;41287;47.554;7.844;2023-06-14T04:09:02;97464.97;;;20.26;40.43
55418;BME280;41287;47.554;7.844;2023-06-14T04:11:32;97471.63;;;20.28;40.11
55418;BME280;41287;47.554;7.844;2023-06-14T04:13:58;97467.75;;;20.29;39.43
55418;BME280;41287;47.554;7.844;2023-06-14T04:16:23;97471.72;;;20.32;39.85
55418;BME280;41287;47.554;7.844;2023-06-14T04:18:49;97482.28;;;20.33;39.08
55418;BME280;41287;47.554;7.844;2023-06-14T04:21:17;97475.66;;;20.34;40.09
55418;BME280;41287;47.554;7.844;2023-06-14T04:23:42;97478.81;;;20.36;40.09
55418;BME280;41287;47.554;7.844;2023-06-14T04:26:09;97477.22;;;20.35;39.25
55418;BME280;41287;47.554;7.844;2023-06-14T04:28:37;97480.66;;;20.32;38.66
55418;BME280;41287;47.554;7.844;2023-06-14T04:31:06;97480.94;;;20.27;38.26
55418;BME280;41287;47.554;7.844;2023-06-14T04:33:36;97482.44;;;20.25;38.15
55418;BME280;41287;47.554;7.844;2023-06-14T04:36:12;97483.16;;;20.22;37.88
55418;BME280;41287;47.554;7.844;2023-06-14T04:38:38;97489.31;;;20.19;38.03
55418;BME280;41287;47.554;7.844;2023-06-14T04:41:04;97487.31;;;20.16;38.00
55418;BME280;41287;47.554;7.844;2023-06-14T04:43:30;97486.09;;;20.13;37.87
55418;BME280;41287;47.554;7.844;2023-06-14T04:45:57;97494.25;;;20.13;37.79
55418;BME280;41287;47.554;7.844;2023-06-14T04:48:22;97489.19;;;20.11;37.98
55418;BME280;41287;47.554;7.844;2023-06-14T04:50:48;97496.91;;;20.09;37.93
55418;BME280;41287;47.554;7.844;2023-06-14T04:53:18;97507.78;;;20.09;38.00
55418;BME280;41287;47.554;7.844;2023-06-14T04:55:46;97501.13;;;20.07;38.01
55418;BME280;41287;47.554;7.844;2023-06-14T04:58:13;97502.69;;;20.08;38.37
55418;BME280;41287;47.554;7.844;2023-06-14T05:00:39;97496.84;;;20.06;38.55
55418;BME280;41287;47.554;7.844;2023-06-14T05:03:04;97499.91;;;20.04;38.53
55418;BME280;41287;47.554;7.844;2023-06-14T05:05:31;97502.63;;;20.04;38.60
55418;BME280;41287;47.554;7.844;2023-06-14T05:07:57;97508.41;;;20.03;38.80
55418;BME280;41287;47.554;7.844;2023-06-14T05:10:22;97504.91;;;20.02;38.84
55418;BME280;41287;47.554;7.844;2023-06-14T05:12:48;97506.84;;;20.02;38.83
55418;BME280;41287;47.554;7.844;2023-06-14T05:15:14;97513.88;;;20.03;38.88
55418;BME280;41287;47.554;7.844;2023-06-14T05:17:40;97503.78;;;20.03;38.92
55418;BME280;41287;47.554;7.844;2023-06-14T05:20:06;97508.06;;;20.04;39.05
55418;BME280;41287;47.554;7.844;2023-06-14T05:22:32;97505.00;;;20.06;39.34
55418;BME280;41287;47.554;7.844;2023-06-14T05:24:57;97507.72;;;20.06;39.40
55418;BME280;41287;47.554;7.844;2023-06-14T05:27:23;97512.00;;;20.07;39.52
55418;BME280;41287;47.554;7.844;2023-06-14T05:29:49;97507.00;;;20.09;39.65
55418;BME280;41287;47.554;7.844;2023-06-14T05:32:15;97510.06;;;20.07;39.68
55418;BME280;41287;47.554;7.844;2023-06-14T05:34:40;97503.13;;;20.10;39.80
55418;BME280;41287;47.554;7.844;2023-06-14T05:37:06;97510.16;;;20.11;39.74
55418;BME280;41287;47.554;7.844;2023-06-14T05:39:32;97512.09;;;20.10;39.68
55418;BME280;41287;47.554;7.844;2023-06-14T05:41:57;97511.72;;;20.12;39.68
55418;BME280;41287;47.554;7.844;2023-06-14T05:44:23;97511.72;;;20.12;39.64
55418;BME280;41287;47.554;7.844;2023-06-14T05:46:48;97513.28;;;20.13;39.78
55418;BME280;41287;47.554;7.844;2023-06-14T05:49:13;97524.16;;;20.13;39.75
55418;BME280;41287;47.554;7.844;2023-06-14T05:51:41;97521.09;;;20.15;39.90
55418;BME280;41287;47.554;7.844;2023-06-14T05:54:08;97515.66;;;20.15;39.94
55418;BME280;41287;47.554;7.844;2023-06-14T05:56:33;97519.94;;;20.16;39.96
55418;BME280;41287;47.554;7.844;2023-06-14T05:58:58;97521.88;;;20.15;40.11
55418;BME280;41287;47.554;7.844;2023-06-14T06:01:25;97519.59;;;20.17;40.12
55418;BME280;41287;47.554;7.844;2023-06-14T06:03:51;97521.19;;;20.18;40.03
55418;BME280;41287;47.554;7.844;2023-06-14T06:06:16;97532.06;;;20.18;40.12
55418;BME280;41287;47.554;7.844;2023-06-14T06:08:42;97521.53;;;20.17;39.97
55418;BME280;41287;47.554;7.844;2023-06-14T06:11:07;97530.13;;;20.19;40.07
55418;BME280;41287;47.554;7.844;2023-06-14T06:13:33;97526.63;;;20.18;40.00
55418;BME280;41287;47.554;7.844;2023-06-14T06:16:00;97523.56;;;20.20;39.67
55418;BME280;41287;47.554;7.844;2023-06-14T06:18:25;97536.38;;;20.19;39.72
55418;BME280;41287;47.554;7.844;2023-06-14T06:20:52;97528.19;;;20.19;40.03
55418;BME280;41287;47.554;7.844;2023-06-14T06:23:17;97529.75;;;20.20;39.98
55418;BME280;41287;47.554;7.844;2023-06-14T06:25:43;97535.19;;;20.20;39.87
55418;BME280;41287;47.554;7.844;2023-06-14T06:28:10;97536.78;;;20.21;39.92
55418;BME280;41287;47.554;7.844;2023-06-14T06:30:36;97547.31;;;20.23;39.84
55418;BME280;41287;47.554;7.844;2023-06-14T06:33:01;97553.97;;;20.25;40.06
55418;BME280;41287;47.554;7.844;2023-06-14T06:35:27;97558.63;;;20.25;39.97
55418;BME280;41287;47.554;7.844;2023-06-14T06:37:52;97547.38;;;20.26;40.07
55418;BME280;41287;47.554;7.844;2023-06-14T06:40:18;97557.09;;;20.27;40.00
55418;BME280;41287;47.554;7.844;2023-06-14T06:42:43;97551.66;;;20.27;39.98
55418;BME280;41287;47.554;7.844;2023-06-14T06:45:09;97551.66;;;20.27;39.75
55418;BME280;41287;47.554;7.844;2023-06-14T06:47:34;97550.53;;;20.28;39.45
55418;BME280;41287;47.554;7.844;2023-06-14T06:50:00;97550.19;;;20.30;39.57
55418;BME280;41287;47.554;7.844;2023-06-14T06:52:25;97550.19;;;20.30;39.65
55418;BME280;41287;47.554;7.844;2023-06-14T06:54:51;97557.19;;;20.31;39.99
55418;BME280;41287;47.554;7.844;2023-06-14T06:57:20;97554.47;;;20.31;39.39
55418;BME280;41287;47.554;7.844;2023-06-14T06:59:47;97561.50;;;20.32;39.51
55418;BME280;41287;47.554;7.844;2023-06-14T07:02:16;97560.38;;;20.33;39.68
55418;BME280;41287;47.554;7.844;2023-06-14T07:04:41;97566.63;;;20.33;39.71
55418;BME280;41287;47.554;7.844;2023-06-14T07:07:06;97560.38;;;20.33;39.78
55418;BME280;41287;47.554;7.844;2023-06-14T07:09:32;97565.09;;;20.36;39.74
55418;BME280;41287;47.554;7.844;2023-06-14T07:11:57;97560.44;;;20.36;39.90
55418;BME280;41287;47.554;7.844;2023-06-14T07:14:24;97562.81;;;20.38;40.02
55418;BME280;41287;47.554;7.844;2023-06-14T07:16:50;97565.19;;;20.39;39.95
55418;BME280;41287;47.554;7.844;2023-06-14T07:19:15;97557.81;;;20.40;40.11
55418;BME280;41287;47.554;7.844;2023-06-14T07:21:40;97558.22;;;20.42;40.24
55418;BME280;41287;47.554;7.844;2023-06-14T07:24:06;97564.44;;;20.42;40.00
55418;BME280;41287;47.554;7.844;2023-06-14T07:26:33;97556.28;;;20.42;39.84
55418;BME280;41287;47.554;7.844;2023-06-14T07:28:58;97555.16;;;20.43;39.79
55418;BME280;41287;47.554;7.844;2023-06-14T07:31:24;97561.03;;;20.45;39.77
55418;BME280;41287;47.554;7.844;2023-06-14T07:33:50;97551.28;;;20.44;39.72
55418;BME280;41287;47.554;7.844;2023-06-14T07:36:17;97559.09;;;20.46;39.68
55418;BME280;41287;47.554;7.844;2023-06-14T07:38:45;97566.47;;;20.45;39.78
55418;BME280;41287;47.554;7.844;2023-06-14T07:41:11;97561.03;;;20.45;39.64
55418;BME280;41287;47.554;7.844;2023-06-14T07:43:36;97562.63;;;20.46;39.68
55418;BME280;41287;47.554;7.844;2023-06-14T07:46:01;97557.16;;;20.46;39.92
55418;BME280;41287;47.554;7.844;2023-06-14T07:48:29;97569.25;;;20.49;39.98
55418;BME280;41287;47.554;7.844;2023-06-14T07:50:55;97559.50;;;20.48;40.19
55418;BME280;41287;47.554;7.844;2023-06-14T07:53:20;97562.66;;;20.50;40.59
55418;BME280;41287;47.554;7.844;2023-06-14T07:55:45;97555.28;;;20.50;40.50
55418;BME280;41287;47.554;7.844;2023-06-14T07:58:12;97563.91;;;20.53;40.61
55418;BME280;41287;47.554;7.844;2023-06-14T08:00:37;97558.88;;;20.55;40.64
55418;BME280;41287;47.554;7.844;2023-06-14T08:03:03;97563.16;;;20.56;40.74
55418;BME280;41287;47.554;7.844;2023-06-14T08:05:29;97557.38;;;20.57;40.84
55418;BME280;41287;47.554;7.844;2023-06-14T08:07:55;97550.78;;;20.58;41.10
55418;BME280;41287;47.554;7.844;2023-06-14T08:10:21;97550.03;;;20.61;41.01
55418;BME280;41287;47.554;7.844;2023-06-14T08:12:48;97548.91;;;20.62;40.90
55418;BME280;41287;47.554;7.844;2023-06-14T08:15:19;97550.47;;;20.63;40.77
55418;BME280;41287;47.554;7.844;2023-06-14T08:17:44;97547.41;;;20.65;40.64
55418;BME280;41287;47.554;7.844;2023-06-14T08:20:11;97544.34;;;20.66;40.38
55418;BME280;41287;47.554;7.844;2023-06-14T08:22:36;97547.84;;;20.67;40.08
55418;BME280;41287;47.554;7.844;2023-06-14T08:25:02;97549.84;;;20.70;39.88
55418;BME280;41287;47.554;7.844;2023-06-14T08:27:29;97551.41;;;20.71;40.02
55418;BME280;41287;47.554;7.844;2023-06-14T08:29:54;97551.06;;;20.72;40.13
55418;BME280;41287;47.554;7.844;2023-06-14T08:32:20;97556.94;;;20.74;40.10
55418;BME280;41287;47.554;7.844;2023-06-14T08:34:46;97553.84;;;20.76;39.90
55418;BME280;41287;47.554;7.844;2023-06-14T08:37:11;97559.28;;;20.76;40.06
55418;BME280;41287;47.554;7.844;2023-06-14T08:39:36;97553.47;;;20.77;40.27
55418;BME280;41287;47.554;7.844;2023-06-14T08:42:03;97555.06;;;20.78;39.51
55418;BME280;41287;47.554;7.844;2023-06-14T08:44:31;97557.03;;;20.81;38.86
55418;BME280;41287;47.554;7.844;2023-06-14T08:46:56;97559.41;;;20.83;38.93
55418;BME280;41287;47.554;7.844;2023-06-14T08:49:25;97560.19;;;20.83;38.74
55418;BME280;41287;47.554;7.844;2023-06-14T08:51:57;97550.09;;;20.84;38.81
55418;BME280;41287;47.554;7.844;2023-06-14T08:54:22;97550.53;;;20.86;38.35
55418;BME280;41287;47.554;7.844;2023-06-14T08:56:49;97556.38;;;20.88;38.34
55418;BME280;41287;47.554;7.844;2023-06-14T08:59:17;97553.66;;;20.88;38.03
55418;BME280;41287;47.554;7.844;2023-06-14T09:01:43;97551.38;;;20.90;38.02
55418;BME280;41287;47.554;7.844;2023-06-14T09:04:10;97552.16;;;20.90;38.30
55418;BME280;41287;47.554;7.844;2023-06-14T09:06:36;97552.16;;;20.90;38.23
55418;BME280;41287;47.554;7.844;2023-06-14T09:09:02;97549.44;;;20.90;38.39
55418;BME280;41287;47.554;7.844;2023-06-14T09:11:30;97551.03;;;20.92;38.70
55418;BME280;41287;47.554;7.844;2023-06-14T09:13:55;97554.88;;;20.90;39.08
55418;BME280;41287;47.554;7.844;2023-06-14T09:16:22;97542.06;;;20.91;38.74
55418;BME280;41287;47.554;7.844;2023-06-14T09:18:48;97547.94;;;20.93;38.59
55418;BME280;41287;47.554;7.844;2023-06-14T09:21:15;97551.47;;;20.94;38.30
55418;BME280;41287;47.554;7.844;2023-06-14T09:23:43;97548.34;;;20.95;37.85
55418;BME280;41287;47.554;7.844;2023-06-14T09:26:16;97542.53;;;20.97;37.83
55418;BME280;41287;47.554;7.844;2023-06-14T09:28:43;97545.28;;;20.97;37.70
55418;BME280;41287;47.554;7.844;2023-06-14T09:31:10;97540.63;;;20.97;37.83
55418;BME280;41287;47.554;7.844;2023-06-14T09:33:36;97547.63;;;20.98;37.82
55418;BME280;41287;47.554;7.844;2023-06-14T09:36:01;97545.72;;;20.99;37.77
55418;BME280;41287;47.554;7.844;2023-06-14T09:38:27;97541.84;;;21.00;37.71
55418;BME280;41287;47.554;7.844;2023-06-14T09:40:52;97545.34;;;21.00;38.00
55418;BME280;41287;47.554;7.844;2023-06-14T09:43:18;97548.88;;;21.01;37.67
55418;BME280;41287;47.554;7.844;2023-06-14T09:45:45;97548.47;;;21.02;38.07
55418;BME280;41287;47.554;7.844;2023-06-14T09:48:14;97544.22;;;21.01;38.14
55418;BME280;41287;47.554;7.844;2023-06-14T09:50:45;97549.28;;;21.03;38.19
55418;BME280;41287;47.554;7.844;2023-06-14T09:53:13;97545.75;;;21.02;37.99
55418;BME280;41287;47.554;7.844;2023-06-14T09:55:41;97550.06;;;21.03;38.29
55418;BME280;41287;47.554;7.844;2023-06-14T09:58:08;97542.69;;;21.04;38.49
55418;BME280;41287;47.554;7.844;2023-06-14T10:00:36;97538.03;;;21.04;38.39
55418;BME280;41287;47.554;7.844;2023-06-14T10:03:13;97535.66;;;21.03;37.86
55418;BME280;41287;47.554;7.844;2023-06-14T10:05:41;97534.16;;;21.05;37.79
55418;BME280;41287;47.554;7.844;2023-06-14T10:08:08;97526.75;;;21.06;37.93
55418;BME280;41287;47.554;7.844;2023-06-14T10:10:35;97533.00;;;21.06;38.11
55418;BME280;41287;47.554;7.844;2023-06-14T10:13:03;97536.50;;;21.07;38.10
55418;BME280;41287;47.554;7.844;2023-06-14T10:16:12;97530.63;;;21.05;37.77
55418;BME280;41287;47.554;7.844;2023-06-14T10:19:32;97520.97;;;21.07;37.77
55418;BME280;41287;47.554;7.844;2023-06-14T10:21:46;97527.19;;;21.08;37.74
55418;BME280;41287;47.554;7.844;2023-06-14T10:24:16;97517.84;;;21.09;37.56
55418;BME280;41287;47.554;7.844;2023-06-14T10:26:54;97517.84;;;21.09;37.12
55418;BME280;41287;47.554;7.844;2023-06-14T10:29:20;97515.56;;;21.11;36.95
55418;BME280;41287;47.554;7.844;2023-06-14T10:31:51;97519.88;;;21.12;36.59
55418;BME280;41287;47.554;7.844;2023-06-14T10:34:24;97523.38;;;21.12;36.37
55418;BME280;41287;47.554;7.844;2023-06-14T10:37:22;97520.22;;;21.10;36.86
55418;BME280;41287;47.554;7.844;2023-06-14T10:39:50;97515.63;;;21.14;37.02
55418;BME280;41287;47.554;7.844;2023-06-14T10:42:18;97521.44;;;21.13;36.92
55418;BME280;41287;47.554;7.844;2023-06-14T10:44:55;97511.69;;;21.12;37.01
55418;BME280;41287;47.554;7.844;2023-06-14T10:47:36;97511.69;;;21.12;37.00
55418;BME280;41287;47.554;7.844;2023-06-14T10:52:42;97514.06;;;21.13;37.62
55418;BME280;41287;47.554;7.844;2023-06-14T10:55:18;97511.72;;;21.15;37.34
55418;BME280;41287;47.554;7.844;2023-06-14T10:57:49;97512.13;;;21.14;37.32
55418;BME280;41287;47.554;7.844;2023-06-14T11:00:22;97514.13;;;21.17;36.95
55418;BME280;41287;47.554;7.844;2023-06-14T11:11:09;97499.38;;;21.18;37.38
55418;BME280;41287;47.554;7.844;2023-06-14T11:13:38;97502.09;;;21.18;37.43
55418;BME280;41287;47.554;7.844;2023-06-14T11:16:13;97508.31;;;21.18;37.09
55418;BME280;41287;47.554;7.844;2023-06-14T11:18:39;97515.34;;;21.19;37.52
55418;BME280;41287;47.554;7.844;2023-06-14T11:21:06;97506.38;;;21.19;37.53
55418;BME280;41287;47.554;7.844;2023-06-14T11:23:31;97500.94;;;21.19;36.79
55418;BME280;41287;47.554;7.844;2023-06-14T11:25:57;97496.72;;;21.21;36.47
55418;BME280;41287;47.554;7.844;2023-06-14T11:28:22;97498.66;;;21.21;36.10
55418;BME280;41287;47.554;7.844;2023-06-14T11:30:59;97504.50;;;21.23;35.91
55418;BME280;41287;47.554;7.844;2023-06-14T11:33:24;97505.28;;;21.23;36.13
55418;BME280;41287;47.554;7.844;2023-06-14T11:35:51;97486.22;;;21.23;36.04
55418;BME280;41287;47.554;7.844;2023-06-14T11:38:18;97492.44;;;21.24;36.11
55418;BME280;41287;47.554;7.844;2023-06-14T11:40:43;97492.44;;;21.24;36.95
55418;BME280;41287;47.554;7.844;2023-06-14T11:43:09;97490.16;;;21.26;37.58
55418;BME280;41287;47.554;7.844;2023-06-14T11:45:35;97486.28;;;21.27;36.80
55418;BME280;41287;47.554;7.844;2023-06-14T11:48:00;97485.94;;;21.28;36.22
55418;BME280;41287;47.554;7.844;2023-06-14T11:50:26;97486.69;;;21.29;36.02
55418;BME280;41287;47.554;7.844;2023-06-14T11:52:53;97485.94;;;21.28;36.34
55418;BME280;41287;47.554;7.844;2023-06-14T11:55:20;97485.94;;;21.28;36.64
55418;BME280;41287;47.554;7.844;2023-06-14T11:57:46;97485.13;;;21.28;36.36
55418;BME280;41287;47.554;7.844;2023-06-14T12:00:12;97484.75;;;21.29;35.87
55418;BME280;41287;47.554;7.844;2023-06-14T12:02:38;97483.59;;;21.31;35.82
55418;BME280;41287;47.554;7.844;2023-06-14T12:05:08;97484.75;;;21.29;35.92
55418;BME280;41287;47.554;7.844;2023-06-14T12:07:36;97492.94;;;21.29;36.09
55418;BME280;41287;47.554;7.844;2023-06-14T12:12:27;97485.53;;;21.30;36.42
55418;BME280;41287;47.554;7.844;2023-06-14T12:14:54;97474.63;;;21.30;36.44
55418;BME280;41287;47.554;7.844;2023-06-14T12:17:21;97477.38;;;21.30;36.43
55418;BME280;41287;47.554;7.844;2023-06-14T12:19:48;97478.16;;;21.31;37.34
55418;BME280;41287;47.554;7.844;2023-06-14T12:22:14;97472.69;;;21.31;37.38
55418;BME280;41287;47.554;7.844;2023-06-14T12:24:43;97471.91;;;21.30;37.74
55418;BME280;41287;47.554;7.844;2023-06-14T12:27:08;97473.06;;;21.29;37.86
55418;BME280;41287;47.554;7.844;2023-06-14T12:29:35;97471.13;;;21.29;37.95
55418;BME280;41287;47.554;7.844;2023-06-14T12:32:03;97472.69;;;21.31;37.23
55418;BME280;41287;47.554;7.844;2023-06-14T12:34:30;97468.03;;;21.31;37.21
55418;BME280;41287;47.554;7.844;2023-06-14T12:36:56;97470.75;;;21.31;37.01
55418;BME280;41287;47.554;7.844;2023-06-14T12:39:23;97463.38;;;21.32;37.21
55418;BME280;41287;47.554;7.844;2023-06-14T12:41:51;97460.66;;;21.32;37.08
55418;BME280;41287;47.554;7.844;2023-06-14T12:44:19;97458.72;;;21.32;37.31
55418;BME280;41287;47.554;7.844;2023-06-14T12:46:45;97451.69;;;21.31;37.53
55418;BME280;41287;47.554;7.844;2023-06-14T12:49:12;97450.91;;;21.31;37.75
55418;BME280;41287;47.554;7.844;2023-06-14T12:51:38;97455.22;;;21.32;37.93
55418;BME280;41287;47.554;7.844;2023-06-14T12:54:04;97456.34;;;21.31;38.14
55418;BME280;41287;47.554;7.844;2023-06-14T12:56:30;97461.44;;;21.32;38.02
55418;BME280;41287;47.554;7.844;2023-06-14T12:58:55;97468.84;;;21.32;38.13
55418;BME280;41287;47.554;7.844;2023-06-14T13:01:20;97466.09;;;21.32;38.14
55418;BME280;41287;47.554;7.844;2023-06-14T13:03:46;97465.31;;;21.31;38.68
55418;BME280;41287;47.554;7.844;2023-06-14T13:06:12;97474.28;;;21.32;38.61
55418;BME280;41287;47.554;7.844;2023-06-14T13:08:38;97465.31;;;21.31;38.57
55418;BME280;41287;47.554;7.844;2023-06-14T13:11:03;97463.38;;;21.32;38.93
55418;BME280;41287;47.554;7.844;2023-06-14T13:13:28;97469.97;;;21.31;38.75
55418;BME280;41287;47.554;7.844;2023-06-14T13:15:53;97463.03;;;21.33;39.30
55418;BME280;41287;47.554;7.844;2023-06-14T13:18:19;97461.09;;;21.34;39.67